Goose Prairie, WA

02:34 AM PDT on Oktober 22, 2014 (GMT -0700)
Granite Creek | Change Station
CLOSE
Current Station
Personal Weather Stations
Location: Upper Kittitas County, WA
Elevation: 2835 ft
Nearby Weather Stations

Elev 2835 ft 47.16 °N, 121.09 °W | Updated 7 minutes ago

Molnigt
Molnigt
41.3 °F
Feels Like 41 °F
N
0.0
Vind Växlande Vind from S/SV
Gusts 0.0 miles/tim

Idag
High -- | Low -- °F
--% Chance of Precip.
Yesterday
High -- | Low -- °F
Precip. -- tum
7:33 AM 6:05 PM
Fjärde kvarteret, 2% visible
Lufttryck 29.86 tum
Sikt 10.0 miles
Molnigt Few 8000 ft
Molnigt 10000 ft
Vindavkylning 41 °F
Daggpunkt 41 °F
Luftfuktighet 97%
Rainfall 0.00 tum
Snow Depth 1 in , 0 in
UV 0 out of 12
Pollen 1.40 out of 12
Air Quality Not available.
Flu Activity Sporadic
METAR KELN 220853Z AUTO 08004KT 10SM FEW080 OVC100 10/06 A2987 RMK AO2 SLP112 T01000056 57009

More Conditions Fewer Conditions

Lufttryck 29.86 tum
Sikt 10.0 miles
Molnigt Few 8000 ft
Molnigt 10000 ft
Vindavkylning 41 °F
Daggpunkt 41 °F
Luftfuktighet 97%
Rainfall 0.00 tum
Snow Depth 1 in , 0 in
UV 0 out of 12
Pollen 1.40 out of 12
Air Quality Not available.
Flu Activity Sporadic
METAR KELN 220853Z AUTO 08004KT 10SM FEW080 OVC100 10/06 A2987 RMK AO2 SLP112 T01000056 57009

More Conditions Fewer Conditions

10-Day Weather Forecast

Almanac

Astronomi

Oct. 22, 2014 Rise Set
Actual Time 7:33 AM PDT 6:05 PM PDT
Civil Twilight 7:02 AM PDT 6:36 PM PDT
Nautical Twilight 6:26 AM PDT 7:11 PM PDT
Astronomical Twilight 5:51 AM PDT 7:46 PM PDT
Månen 6:15 AM PDT 5:37 PM PDT
Length Of Visible Light 11h 34m
Dagens längd
10h 32m
Tomorrow will be 3m 9s shorter.
Fjärde kvarteret, 2% of the Moon is Illuminated
Idag
Fjärde kvarteret
Oct 23
New
Oct 30
Första kvarteret
Nov 6
Fullmåne
Nov 14
Sista kvarteret

Today's Extremes

State Highs State Lows

Community

WunderPhotos

Upload Photos

1,763,900 photos uploaded!

Nearby

Snödjup

Station Depth Elevation
Morse Lake 1 in 5400 ft
Pigtail Peak 0 in 5900 ft
Green Lake 0 in 6000 ft
Stampede Pass 0 in 3860 ft
Meadows Pass 1 in 3500 ft

Earthquake Activity

Stad Distance Mag. Time & Date
No recent earthquake activity has been reported nearby.
Minimum magnitude displayed is 2.5.

Coastal Water Temperatures

Plats Temperatur
No Stations Reporting

Nearby Weather Stations